Georgetown, Connecticut
Current Conditions -  °F | °C
As of 9:53 PM on Tuesday 21 Oct 2014 (Local Time) from KDXR Reporting Station
Overcast Overcast  
Wind Chill: 53°   Ceiling: 7000
Heat Index: 53°   Visibility: 8mi
Dew Point: 30°   Wind: 0mph
Humidity: 41%   Direction: NA
Pressure: 29.94"   Gusts: NA
Location:  41.26°N, 73.43°W
Report Text: KDXR 220153Z 00000KT 8SM OVC070 12/M01 A2994 RMK AO2 RAB09E32 SLP138 P0000 T01171011
Loading
Personal Weather Stations






























Interactive Weather Map
Tropical Storm Tracking
New forecast layout! Learn more

10-Day Weather Forecast

Advertisements
Track Severe Weather on mobile